• Join FlightAware (Why Join?)
  • Login
  • US Flag 
12:45PM EST


 

Airport Tracker/Info


-or-


 

Live Flight TrackerFlight Track Log ✈ UAL3741 ✈ 18-Aug-2013 ✈ KORD - KPWM

Flight Track Log - Related Links

Times and Time Zones

All times are in EDT time to prevent confusion due to time zone crossing. See the UAL3741 flight status page for this flight to view local times or setup timezone preferences in your user account.

Time Position Orientation Groundspeed Altitude Reporting Facility
EDT Latitude Longitude Course Direction KTS MPH feet Rate Location/Type
11:08PM 42.3086 -85.4133 91° East 471 542 29,400  Level Cleveland Center
11:09PM 42.3053 -85.2417 91° East 460 529 30,400 960 Climbing Cleveland Center
11:10PM 42.3036 -85.0731 91° East 460 529 31,400 900 Climbing Cleveland Center
11:11PM 42.2994 -84.9097 92° East 448 516 32,300 780 Climbing Cleveland Center
11:12PM 42.2975 -84.7383 91° East 448 516 33,000 720 Climbing Cleveland Center
11:13PM 42.2894 -84.5553 93° East 443 510 33,800 720 Climbing Cleveland Center
11:14PM 42.3056 -84.3878 83° East 443 510 34,500 600 Climbing Cleveland Center
11:15PM 42.3192 -84.2200 84° East 438 504 35,000 240 Climbing Cleveland Center
11:16PM 42.3328 -84.0522 84° East 443 510 35,000  Level Cleveland Center
11:17PM 42.3483 -83.8789 83° East 448 516 35,000  Level Cleveland Center
11:18PM 42.3636 -83.7053 83° East 461 531 35,000  Level Cleveland Center
11:19PM 42.3742 -83.5400 85° East 485 558 35,000  Level Cleveland Center
11:20PM 42.3911 -83.3608 83° East 475 547 35,000  Level Cleveland Center
11:21PM 42.4058 -83.1817 84° East 481 554 35,000  Level Cleveland Center
11:22PM 42.4181 -83.0047 85° East 481 554 35,000  Level Cleveland Center
11:23PM 42.4322 -82.8253 84° East 481 554 35,000  Level Cleveland Center
11:24PM 42.4439 -82.6456 85° East 481 554 35,000 240 Level Cleveland Center
11:25PM 42.4572 -82.4658 84° East 481 554 35,500 540 Climbing Cleveland Center
11:26PM 42.4706 -82.2861 84° East 481 554 36,100 600 Climbing Cleveland Center
11:27PM 42.4833 -82.1092 84° East 476 548 36,700 420 Climbing Cleveland Center
11:28PM 42.4939 -81.9292 85° East 476 548 37,000 120 Climbing Cleveland Center
11:29PM 42.5086 -81.7294 84° East 476 548 37,000  Level Cleveland Center
11:30PM 42.5206 -81.5578 85° East 489 563 37,000  Level Cleveland Center
11:31PM 42.5325 -81.3692 85° East 496 571 37,000  Level Cleveland Center
11:32PM 42.5442 -81.1750 85° East 501 577 37,000  Level Cleveland Center
11:33PM 42.5533 -80.9833 86° East 506 582 37,000  Level Cleveland Center
11:34PM 42.5664 -80.7917 85° East 506 582 37,000  Level Cleveland Center
11:35PM 42.5769 -80.5917 86° East 526 605 37,000  Level Cleveland Center
11:36PM 42.5892 -80.3772 86° East 526 605 37,000  Level Cleveland Center
11:37PM 42.5992 -80.1800 86° East 526 605 37,000  Level Cleveland Center
11:38PM 42.6108 -79.9767 85° East 531 611 37,000  Level Cleveland Center
11:39PM 42.6200 -79.7733 86° East 536 617 37,000  Level Cleveland Center
11:40PM 42.6308 -79.5672 86° East 536 617 37,000  Level Cleveland Center
11:41PM 42.6414 -79.3583 86° East 536 617 37,000  Level Cleveland Center
11:42PM 42.6494 -79.1519 87° East 542 624 37,000  Level Cleveland Center
11:43PM 42.6569 -78.9400 87° East 547 629 37,000  Level Cleveland Center
11:44PM 42.6642 -78.7308 87° East 553 636 37,000  Level Cleveland Center
11:45PM 42.6731 -78.5217 87° East 553 636 37,000  Level Cleveland Center
11:46PM 42.6817 -78.3125 87° East 553 636 37,000  Level Cleveland Center
11:47PM 42.6878 -78.1003 88° East 553 636 37,000  Level Cleveland Center
11:48PM 42.6956 -77.8881 87° East 553 636 37,000  Level Cleveland Center
11:49PM 42.6994 -77.6986 88° East 553 636 37,000  Level Cleveland Center
11:51PM 42.7100 -77.2786 88° East 588 677 37,000  Level Boston Center
11:52PM 42.7175 -77.0500 87° East 564 649 37,000  Level Boston Center
11:53PM 42.7219 -76.8356 88° East 559 643 37,000  Level Boston Center
11:54PM 42.7278 -76.6239 88° East 559 643 37,000  Level Boston Center
11:55PM 42.7606 -76.4111 78° East 559 643 37,000  Level Boston Center
11:56PM 42.7967 -76.2039 77° East 564 649 37,000  Level Boston Center
11:57PM 42.8286 -75.9878 79° East 564 649 37,000  Level Boston Center
11:58PM 42.8600 -75.7797 78° East 569 655 37,000  Level Boston Center
11:59PM 42.8906 -75.5831 78° East 574 661 37,000  Level Boston Center
12:00AM 42.9192 -75.3689 80° East 574 661 37,000  Level Boston Center
12:01AM 42.9517 -75.1550 78° East 580 667 37,000  Level Boston Center
12:02AM 42.9836 -74.9433 78° East 575 662 37,000  Level Boston Center
12:03AM 43.0131 -74.7317 79° East 575 662 37,000  Level Boston Center
12:04AM 43.0422 -74.5169 79° East 575 662 37,000  Level Boston Center
12:05AM 43.0708 -74.3017 80° East 575 662 37,000 -600 Level Boston Center
12:06AM 43.1014 -74.0864 79° East 575 662 35,900 -1,320 Descending Boston Center
12:07AM 43.1311 -73.8739 79° East 575 662 34,400 -1,620 Descending Boston Center
12:08AM 43.1608 -73.6469 80° East 568 654 32,700 -1,620 Descending Boston Center
12:09AM 43.1881 -73.4311 80° East 562 647 31,200 -1,440 Descending Boston Center
12:10AM 43.2167 -73.2492 78° East 556 640 29,900 -1,560 Descending Boston Center
12:11AM 43.2408 -73.0558 80° East 541 623 28,200 -1,740 Descending Boston Center
12:12AM 43.2667 -72.8678 79° East 515 593 26,500 -1,620 Descending Boston Center
12:13AM 43.2881 -72.6769 81° East 509 586 25,000 -1,260 Descending Boston Center
12:14AM 43.3111 -72.4914 80° East 498 573 24,000 -1,740 Descending Boston Center
12:15AM 43.3319 -72.3089 81° East 493 567 21,500 -2,220 Descending Boston Center
12:16AM 43.3525 -72.1375 81° East 474 545 19,700 -1,860 Descending Boston Center
12:17AM 43.3725 -71.9575 81° East 445 512 17,800 -1,920 Descending Boston Center
12:18AM 43.3906 -71.7944 81° East 429 494 16,000 -1,740 Descending Boston Center
12:19AM 43.4083 -71.6369 81° East 424 488 14,400 -1,800 Descending Boston Center
12:20AM 43.4258 -71.4825 81° East 414 476 12,500 -1,680 Descending Boston Center
12:21AM 43.4433 -71.3306 81° East 409 471 11,100 -720 Descending Boston Center
12:22AM 43.4606 -71.1786 81° East 404 465 11,100 -60 Level Boston Center
12:23AM 43.4942 -71.0347 72° East 392 451 11,000 -180 Descending Boston Center
12:24AM 43.5300 -70.8967 70° East 387 445 10,800 -1,140 Descending Boston Center
12:25AM 43.5597 -70.7928 68° East 320 368 8,800 -2,100 Descending Boston Center
12:26AM 43.5853 -70.6917 71° East 287 330 6,500 -2,100 Descending Boston Center
12:27AM 43.6108 -70.5961 70° East 267 307 4,700 -1,740 Descending Boston Center
12:28AM 43.6306 -70.5211 70° East 230 265 3,200 -1,380 Descending Boston Center
12:29AM 43.6481 -70.4544 70° East 184 212 2,000 -1,080 Descending Boston Center
12:30AM 43.6514 -70.3969 85° East 158 182 1,100 -900 Descending Boston Center
12:31AM 43.6483 -70.3397 94° East 152 175 300 1,500 Descending Boston Center
12:32AM 43.6450 -70.2853 95° East 146 168 4,100 1,860 Climbing Boston Center
12:33AM 43.6378 -70.2281 100° East 146 168 4,100  Level Boston Center